<?xml version="1.0" encoding="UTF-8" standalone="no" ?>
<gpx xmlns="http://www.topografix.com/GPX/1/1" xmlns:xsi="http://www.w3.org/2001/XMLSchema-instance" xsi:schemaLocation="http://www.topografix.com/GPX/1/1 http://www.topografix.com/GPX/1/1/gpx.xsd" version="1.1" creator="VisuGPX - https://www.visugpx.com">
  <metadata>
    <name>2022-01-24-46-auzole</name>
    <desc><![CDATA[Randonnée de 10km pour 250m de dénivelé positif. Ce circuit vous emmene jusqu'au porte de Calamane par des sentiers en sous bois .. pas de difficulté]]></desc>
  </metadata>
  <trk>
    <name><![CDATA[14112218-Auzole 22]]></name>
    <trkseg>
      <trkpt lat="44.51323" lon="1.4426">
        <ele>312</ele>
        <time>2022-01-25T08:27:49Z</time>
      </trkpt>
      <trkpt lat="44.5134" lon="1.4426">
        <ele>311</ele>
        <time>2022-01-25T08:28:12Z</time>
      </trkpt>
      <trkpt lat="44.51368" lon="1.44288">
        <ele>310</ele>
        <time>2022-01-25T08:28:58Z</time>
      </trkpt>
      <trkpt lat="44.51396" lon="1.44334">
        <ele>309</ele>
        <time>2022-01-25T08:29:55Z</time>
      </trkpt>
      <trkpt lat="44.51457" lon="1.44251">
        <ele>302</ele>
        <time>2022-01-25T08:31:49Z</time>
      </trkpt>
      <trkpt lat="44.51474" lon="1.44195">
        <ele>299</ele>
        <time>2022-01-25T08:32:46Z</time>
      </trkpt>
      <trkpt lat="44.51526" lon="1.44156">
        <ele>291</ele>
        <time>2022-01-25T08:34:05Z</time>
      </trkpt>
      <trkpt lat="44.51583" lon="1.44088">
        <ele>290</ele>
        <time>2022-01-25T08:35:45Z</time>
      </trkpt>
      <trkpt lat="44.51652" lon="1.44012">
        <ele>285</ele>
        <time>2022-01-25T08:37:42Z</time>
      </trkpt>
      <trkpt lat="44.51734" lon="1.43945">
        <ele>272</ele>
        <time>2022-01-25T08:39:49Z</time>
      </trkpt>
      <trkpt lat="44.51797" lon="1.43887">
        <ele>263</ele>
        <time>2022-01-25T08:41:29Z</time>
      </trkpt>
      <trkpt lat="44.51846" lon="1.43825">
        <ele>260</ele>
        <time>2022-01-25T08:42:57Z</time>
      </trkpt>
      <trkpt lat="44.51897" lon="1.43804">
        <ele>254</ele>
        <time>2022-01-25T08:44:08Z</time>
      </trkpt>
      <trkpt lat="44.51948" lon="1.43762">
        <ele>247</ele>
        <time>2022-01-25T08:45:27Z</time>
      </trkpt>
      <trkpt lat="44.51982" lon="1.4375">
        <ele>243</ele>
        <time>2022-01-25T08:46:14Z</time>
      </trkpt>
      <trkpt lat="44.52032" lon="1.43761">
        <ele>235</ele>
        <time>2022-01-25T08:47:22Z</time>
      </trkpt>
      <trkpt lat="44.52079" lon="1.4375">
        <ele>227</ele>
        <time>2022-01-25T08:48:25Z</time>
      </trkpt>
      <trkpt lat="44.5211" lon="1.43716">
        <ele>224</ele>
        <time>2022-01-25T08:49:18Z</time>
      </trkpt>
      <trkpt lat="44.5213" lon="1.43781">
        <ele>225</ele>
        <time>2022-01-25T08:50:25Z</time>
      </trkpt>
      <trkpt lat="44.52162" lon="1.43878">
        <ele>226</ele>
        <time>2022-01-25T08:52:07Z</time>
      </trkpt>
      <trkpt lat="44.52198" lon="1.44024">
        <ele>232</ele>
        <time>2022-01-25T08:54:34Z</time>
      </trkpt>
      <trkpt lat="44.52243" lon="1.44144">
        <ele>234</ele>
        <time>2022-01-25T08:56:43Z</time>
      </trkpt>
      <trkpt lat="44.52275" lon="1.44212">
        <ele>240</ele>
        <time>2022-01-25T08:58:00Z</time>
      </trkpt>
      <trkpt lat="44.52292" lon="1.44216">
        <ele>242</ele>
        <time>2022-01-25T08:58:23Z</time>
      </trkpt>
      <trkpt lat="44.52313" lon="1.44216">
        <ele>243</ele>
        <time>2022-01-25T08:58:51Z</time>
      </trkpt>
      <trkpt lat="44.52272" lon="1.44086">
        <ele>229</ele>
        <time>2022-01-25T09:01:06Z</time>
      </trkpt>
      <trkpt lat="44.52268" lon="1.44042">
        <ele>231</ele>
        <time>2022-01-25T09:01:49Z</time>
      </trkpt>
      <trkpt lat="44.52246" lon="1.44021">
        <ele>229</ele>
        <time>2022-01-25T09:02:24Z</time>
      </trkpt>
      <trkpt lat="44.52239" lon="1.44006">
        <ele>229</ele>
        <time>2022-01-25T09:02:41Z</time>
      </trkpt>
      <trkpt lat="44.52221" lon="1.43894">
        <ele>237</ele>
        <time>2022-01-25T09:04:31Z</time>
      </trkpt>
      <trkpt lat="44.52189" lon="1.4378">
        <ele>231</ele>
        <time>2022-01-25T09:06:27Z</time>
      </trkpt>
      <trkpt lat="44.52163" lon="1.43671">
        <ele>226</ele>
        <time>2022-01-25T09:08:16Z</time>
      </trkpt>
      <trkpt lat="44.52123" lon="1.43613">
        <ele>222</ele>
        <time>2022-01-25T09:09:33Z</time>
      </trkpt>
      <trkpt lat="44.52139" lon="1.43568">
        <ele>223</ele>
        <time>2022-01-25T09:10:21Z</time>
      </trkpt>
      <trkpt lat="44.52156" lon="1.43563">
        <ele>226</ele>
        <time>2022-01-25T09:10:44Z</time>
      </trkpt>
      <trkpt lat="44.52189" lon="1.43599">
        <ele>233</ele>
        <time>2022-01-25T09:11:40Z</time>
      </trkpt>
      <trkpt lat="44.52223" lon="1.43621">
        <ele>241</ele>
        <time>2022-01-25T09:12:30Z</time>
      </trkpt>
      <trkpt lat="44.52239" lon="1.43647">
        <ele>248</ele>
        <time>2022-01-25T09:13:03Z</time>
      </trkpt>
      <trkpt lat="44.52245" lon="1.43673">
        <ele>251</ele>
        <time>2022-01-25T09:13:29Z</time>
      </trkpt>
      <trkpt lat="44.52276" lon="1.43699">
        <ele>258</ele>
        <time>2022-01-25T09:14:17Z</time>
      </trkpt>
      <trkpt lat="44.52303" lon="1.43711">
        <ele>263</ele>
        <time>2022-01-25T09:14:55Z</time>
      </trkpt>
      <trkpt lat="44.5232" lon="1.43744">
        <ele>272</ele>
        <time>2022-01-25T09:15:33Z</time>
      </trkpt>
      <trkpt lat="44.52345" lon="1.4377">
        <ele>279</ele>
        <time>2022-01-25T09:16:15Z</time>
      </trkpt>
      <trkpt lat="44.52347" lon="1.43787">
        <ele>280</ele>
        <time>2022-01-25T09:16:31Z</time>
      </trkpt>
      <trkpt lat="44.52377" lon="1.43789">
        <ele>284</ele>
        <time>2022-01-25T09:17:11Z</time>
      </trkpt>
      <trkpt lat="44.52416" lon="1.43795">
        <ele>290</ele>
        <time>2022-01-25T09:18:04Z</time>
      </trkpt>
      <trkpt lat="44.52429" lon="1.43801">
        <ele>292</ele>
        <time>2022-01-25T09:18:22Z</time>
      </trkpt>
      <trkpt lat="44.52453" lon="1.43782">
        <ele>292</ele>
        <time>2022-01-25T09:18:59Z</time>
      </trkpt>
      <trkpt lat="44.52475" lon="1.43792">
        <ele>295</ele>
        <time>2022-01-25T09:19:30Z</time>
      </trkpt>
      <trkpt lat="44.52491" lon="1.43785">
        <ele>295</ele>
        <time>2022-01-25T09:19:52Z</time>
      </trkpt>
      <trkpt lat="44.52569" lon="1.43733">
        <ele>307</ele>
        <time>2022-01-25T09:21:47Z</time>
      </trkpt>
      <trkpt lat="44.52594" lon="1.43722">
        <ele>310</ele>
        <time>2022-01-25T09:22:22Z</time>
      </trkpt>
      <trkpt lat="44.5264" lon="1.43689">
        <ele>313</ele>
        <time>2022-01-25T09:23:31Z</time>
      </trkpt>
      <trkpt lat="44.52662" lon="1.4368">
        <ele>316</ele>
        <time>2022-01-25T09:24:02Z</time>
      </trkpt>
      <trkpt lat="44.5273" lon="1.43625">
        <ele>321</ele>
        <time>2022-01-25T09:25:47Z</time>
      </trkpt>
      <trkpt lat="44.52748" lon="1.4359">
        <ele>325</ele>
        <time>2022-01-25T09:26:28Z</time>
      </trkpt>
      <trkpt lat="44.52758" lon="1.43572">
        <ele>325</ele>
        <time>2022-01-25T09:26:49Z</time>
      </trkpt>
      <trkpt lat="44.5277" lon="1.43561">
        <ele>323</ele>
        <time>2022-01-25T09:27:08Z</time>
      </trkpt>
      <trkpt lat="44.52723" lon="1.43434">
        <ele>316</ele>
        <time>2022-01-25T09:29:25Z</time>
      </trkpt>
      <trkpt lat="44.5271" lon="1.4341">
        <ele>314</ele>
        <time>2022-01-25T09:29:53Z</time>
      </trkpt>
      <trkpt lat="44.52702" lon="1.43356">
        <ele>314</ele>
        <time>2022-01-25T09:30:46Z</time>
      </trkpt>
      <trkpt lat="44.52672" lon="1.4323">
        <ele>320</ele>
        <time>2022-01-25T09:32:52Z</time>
      </trkpt>
      <trkpt lat="44.52656" lon="1.43157">
        <ele>322</ele>
        <time>2022-01-25T09:34:05Z</time>
      </trkpt>
      <trkpt lat="44.52648" lon="1.43097">
        <ele>318</ele>
        <time>2022-01-25T09:35:03Z</time>
      </trkpt>
      <trkpt lat="44.52639" lon="1.43078">
        <ele>316</ele>
        <time>2022-01-25T09:35:25Z</time>
      </trkpt>
      <trkpt lat="44.52646" lon="1.43066">
        <ele>316</ele>
        <time>2022-01-25T09:35:39Z</time>
      </trkpt>
      <trkpt lat="44.52647" lon="1.42987">
        <ele>315</ele>
        <time>2022-01-25T09:36:54Z</time>
      </trkpt>
      <trkpt lat="44.52679" lon="1.42904">
        <ele>318</ele>
        <time>2022-01-25T09:38:24Z</time>
      </trkpt>
      <trkpt lat="44.5273" lon="1.42797">
        <ele>308</ele>
        <time>2022-01-25T09:40:27Z</time>
      </trkpt>
      <trkpt lat="44.5275" lon="1.42772">
        <ele>305</ele>
        <time>2022-01-25T09:41:02Z</time>
      </trkpt>
      <trkpt lat="44.52777" lon="1.42733">
        <ele>303</ele>
        <time>2022-01-25T09:41:54Z</time>
      </trkpt>
      <trkpt lat="44.52787" lon="1.42711">
        <ele>302</ele>
        <time>2022-01-25T09:42:19Z</time>
      </trkpt>
      <trkpt lat="44.52803" lon="1.42693">
        <ele>304</ele>
        <time>2022-01-25T09:42:46Z</time>
      </trkpt>
      <trkpt lat="44.52816" lon="1.42649">
        <ele>307</ele>
        <time>2022-01-25T09:43:32Z</time>
      </trkpt>
      <trkpt lat="44.52822" lon="1.42582">
        <ele>305</ele>
        <time>2022-01-25T09:44:36Z</time>
      </trkpt>
      <trkpt lat="44.52835" lon="1.42545">
        <ele>307</ele>
        <time>2022-01-25T09:45:15Z</time>
      </trkpt>
      <trkpt lat="44.52834" lon="1.42524">
        <ele>305</ele>
        <time>2022-01-25T09:45:35Z</time>
      </trkpt>
      <trkpt lat="44.52881" lon="1.42374">
        <ele>289</ele>
        <time>2022-01-25T09:48:11Z</time>
      </trkpt>
      <trkpt lat="44.52891" lon="1.42364">
        <ele>288</ele>
        <time>2022-01-25T09:48:27Z</time>
      </trkpt>
      <trkpt lat="44.52939" lon="1.42254">
        <ele>275</ele>
        <time>2022-01-25T09:50:30Z</time>
      </trkpt>
      <trkpt lat="44.52972" lon="1.42184">
        <ele>269</ele>
        <time>2022-01-25T09:51:50Z</time>
      </trkpt>
      <trkpt lat="44.52984" lon="1.42118">
        <ele>269</ele>
        <time>2022-01-25T09:52:55Z</time>
      </trkpt>
      <trkpt lat="44.52992" lon="1.42065">
        <ele>270</ele>
        <time>2022-01-25T09:53:46Z</time>
      </trkpt>
      <trkpt lat="44.5299" lon="1.42026">
        <ele>269</ele>
        <time>2022-01-25T09:54:23Z</time>
      </trkpt>
      <trkpt lat="44.52979" lon="1.41981">
        <ele>268</ele>
        <time>2022-01-25T09:55:09Z</time>
      </trkpt>
      <trkpt lat="44.52926" lon="1.41921">
        <ele>269</ele>
        <time>2022-01-25T09:56:40Z</time>
      </trkpt>
      <trkpt lat="44.52887" lon="1.41885">
        <ele>268</ele>
        <time>2022-01-25T09:57:42Z</time>
      </trkpt>
      <trkpt lat="44.52809" lon="1.41802">
        <ele>270</ele>
        <time>2022-01-25T09:59:53Z</time>
      </trkpt>
      <trkpt lat="44.52778" lon="1.41728">
        <ele>264</ele>
        <time>2022-01-25T10:01:14Z</time>
      </trkpt>
      <trkpt lat="44.52765" lon="1.4164">
        <ele>253</ele>
        <time>2022-01-25T10:02:40Z</time>
      </trkpt>
      <trkpt lat="44.52781" lon="1.4156">
        <ele>243</ele>
        <time>2022-01-25T10:03:59Z</time>
      </trkpt>
      <trkpt lat="44.52791" lon="1.41473">
        <ele>233</ele>
        <time>2022-01-25T10:05:23Z</time>
      </trkpt>
      <trkpt lat="44.52791" lon="1.41439">
        <ele>230</ele>
        <time>2022-01-25T10:05:55Z</time>
      </trkpt>
      <trkpt lat="44.52812" lon="1.41343">
        <ele>225</ele>
        <time>2022-01-25T10:07:30Z</time>
      </trkpt>
      <trkpt lat="44.52845" lon="1.41247">
        <ele>223</ele>
        <time>2022-01-25T10:09:12Z</time>
      </trkpt>
      <trkpt lat="44.52853" lon="1.41169">
        <ele>216</ele>
        <time>2022-01-25T10:10:27Z</time>
      </trkpt>
      <trkpt lat="44.52845" lon="1.41139">
        <ele>213</ele>
        <time>2022-01-25T10:10:57Z</time>
      </trkpt>
      <trkpt lat="44.52851" lon="1.41063">
        <ele>202</ele>
        <time>2022-01-25T10:12:10Z</time>
      </trkpt>
      <trkpt lat="44.52853" lon="1.40999">
        <ele>189</ele>
        <time>2022-01-25T10:13:11Z</time>
      </trkpt>
      <trkpt lat="44.52882" lon="1.40913">
        <ele>173</ele>
        <time>2022-01-25T10:14:41Z</time>
      </trkpt>
      <trkpt lat="44.52888" lon="1.4086">
        <ele>167</ele>
        <time>2022-01-25T10:15:33Z</time>
      </trkpt>
      <trkpt lat="44.52868" lon="1.40874">
        <ele>169</ele>
        <time>2022-01-25T10:16:02Z</time>
      </trkpt>
      <trkpt lat="44.52817" lon="1.40939">
        <ele>176</ele>
        <time>2022-01-25T10:17:34Z</time>
      </trkpt>
      <trkpt lat="44.52772" lon="1.40983">
        <ele>176</ele>
        <time>2022-01-25T10:18:48Z</time>
      </trkpt>
      <trkpt lat="44.52747" lon="1.41015">
        <ele>175</ele>
        <time>2022-01-25T10:19:33Z</time>
      </trkpt>
      <trkpt lat="44.52737" lon="1.41054">
        <ele>179</ele>
        <time>2022-01-25T10:20:12Z</time>
      </trkpt>
      <trkpt lat="44.52718" lon="1.41108">
        <ele>182</ele>
        <time>2022-01-25T10:21:09Z</time>
      </trkpt>
      <trkpt lat="44.52724" lon="1.41161">
        <ele>187</ele>
        <time>2022-01-25T10:22:00Z</time>
      </trkpt>
      <trkpt lat="44.52704" lon="1.41297">
        <ele>190</ele>
        <time>2022-01-25T10:24:13Z</time>
      </trkpt>
      <trkpt lat="44.52648" lon="1.4142">
        <ele>187</ele>
        <time>2022-01-25T10:26:31Z</time>
      </trkpt>
      <trkpt lat="44.52517" lon="1.41635">
        <ele>190</ele>
        <time>2022-01-25T10:31:00Z</time>
      </trkpt>
      <trkpt lat="44.52488" lon="1.41721">
        <ele>192</ele>
        <time>2022-01-25T10:32:31Z</time>
      </trkpt>
      <trkpt lat="44.52478" lon="1.41821">
        <ele>199</ele>
        <time>2022-01-25T10:34:07Z</time>
      </trkpt>
      <trkpt lat="44.52455" lon="1.41895">
        <ele>197</ele>
        <time>2022-01-25T10:35:24Z</time>
      </trkpt>
      <trkpt lat="44.52443" lon="1.41959">
        <ele>195</ele>
        <time>2022-01-25T10:36:27Z</time>
      </trkpt>
      <trkpt lat="44.5242" lon="1.42039">
        <ele>196</ele>
        <time>2022-01-25T10:37:49Z</time>
      </trkpt>
      <trkpt lat="44.52379" lon="1.42128">
        <ele>201</ele>
        <time>2022-01-25T10:39:30Z</time>
      </trkpt>
      <trkpt lat="44.52353" lon="1.42194">
        <ele>204</ele>
        <time>2022-01-25T10:40:41Z</time>
      </trkpt>
      <trkpt lat="44.52296" lon="1.42339">
        <ele>209</ele>
        <time>2022-01-25T10:43:19Z</time>
      </trkpt>
      <trkpt lat="44.52249" lon="1.42491">
        <ele>206</ele>
        <time>2022-01-25T10:45:57Z</time>
      </trkpt>
      <trkpt lat="44.52192" lon="1.42699">
        <ele>207</ele>
        <time>2022-01-25T10:49:29Z</time>
      </trkpt>
      <trkpt lat="44.52161" lon="1.42981">
        <ele>220</ele>
        <time>2022-01-25T10:54:00Z</time>
      </trkpt>
      <trkpt lat="44.52129" lon="1.43236">
        <ele>227</ele>
        <time>2022-01-25T10:58:06Z</time>
      </trkpt>
      <trkpt lat="44.52075" lon="1.43424">
        <ele>215</ele>
        <time>2022-01-25T11:01:19Z</time>
      </trkpt>
      <trkpt lat="44.52091" lon="1.43547">
        <ele>215</ele>
        <time>2022-01-25T11:03:18Z</time>
      </trkpt>
      <trkpt lat="44.52034" lon="1.43587">
        <ele>218</ele>
        <time>2022-01-25T11:04:43Z</time>
      </trkpt>
      <trkpt lat="44.52007" lon="1.43587">
        <ele>219</ele>
        <time>2022-01-25T11:05:19Z</time>
      </trkpt>
      <trkpt lat="44.51998" lon="1.43555">
        <ele>221</ele>
        <time>2022-01-25T11:05:52Z</time>
      </trkpt>
      <trkpt lat="44.51951" lon="1.43581">
        <ele>224</ele>
        <time>2022-01-25T11:07:00Z</time>
      </trkpt>
      <trkpt lat="44.5177" lon="1.43583">
        <ele>230</ele>
        <time>2022-01-25T11:11:01Z</time>
      </trkpt>
      <trkpt lat="44.5165" lon="1.43517">
        <ele>241</ele>
        <time>2022-01-25T11:13:53Z</time>
      </trkpt>
      <trkpt lat="44.51462" lon="1.43468">
        <ele>252</ele>
        <time>2022-01-25T11:18:08Z</time>
      </trkpt>
      <trkpt lat="44.51371" lon="1.4347">
        <ele>256</ele>
        <time>2022-01-25T11:20:10Z</time>
      </trkpt>
      <trkpt lat="44.51266" lon="1.43514">
        <ele>259</ele>
        <time>2022-01-25T11:22:36Z</time>
      </trkpt>
      <trkpt lat="44.51191" lon="1.43564">
        <ele>263</ele>
        <time>2022-01-25T11:24:27Z</time>
      </trkpt>
      <trkpt lat="44.51131" lon="1.43669">
        <ele>266</ele>
        <time>2022-01-25T11:26:35Z</time>
      </trkpt>
      <trkpt lat="44.51155" lon="1.43676">
        <ele>264</ele>
        <time>2022-01-25T11:27:08Z</time>
      </trkpt>
      <trkpt lat="44.51238" lon="1.43811">
        <ele>278</ele>
        <time>2022-01-25T11:29:57Z</time>
      </trkpt>
      <trkpt lat="44.51218" lon="1.43948">
        <ele>291</ele>
        <time>2022-01-25T11:32:10Z</time>
      </trkpt>
      <trkpt lat="44.51202" lon="1.44069">
        <ele>302</ele>
        <time>2022-01-25T11:34:07Z</time>
      </trkpt>
      <trkpt lat="44.51264" lon="1.44029">
        <ele>300</ele>
        <time>2022-01-25T11:35:38Z</time>
      </trkpt>
      <trkpt lat="44.51304" lon="1.44042">
        <ele>304</ele>
        <time>2022-01-25T11:36:33Z</time>
      </trkpt>
      <trkpt lat="44.51328" lon="1.43992">
        <ele>303</ele>
        <time>2022-01-25T11:37:31Z</time>
      </trkpt>
      <trkpt lat="44.51349" lon="1.43957">
        <ele>303</ele>
        <time>2022-01-25T11:38:14Z</time>
      </trkpt>
      <trkpt lat="44.51374" lon="1.43929">
        <ele>303</ele>
        <time>2022-01-25T11:38:57Z</time>
      </trkpt>
      <trkpt lat="44.51382" lon="1.43972">
        <ele>304</ele>
        <time>2022-01-25T11:39:39Z</time>
      </trkpt>
      <trkpt lat="44.51351" lon="1.4408">
        <ele>308</ele>
        <time>2022-01-25T11:41:30Z</time>
      </trkpt>
      <trkpt lat="44.51314" lon="1.44256">
        <ele>312</ele>
        <time>2022-01-25T11:44:24Z</time>
      </trkpt>
    </trkseg>
  </trk>
</gpx>